PWSweather.com
Personal Weather Stations
Station Observations
KMIEASTT1
Tawas Bay, East Tawas, MI 48730

Tawas BayEast Tawas, MI 48730

Lat: 44.28, Lon: -83.48

Elevation: 600

Station Type: Davis VantagePro

http://www.tawasbayweather.com

Latest ConditionsUpdated 7:15:11 AM EDT Thursday, Apr 24, 2014
Currently Today's Max Today's Min Today's Average
Temperature 37.7°F3.2°C 37.7°F3.2°C 28.1°F-2.2°C 31.1°F-0.5°C
Dew Point 31.2°F-0.4°C 32.4°F0.2°C 25.3°F-3.7°C 27.0°F-2.8°C
Winds 3.0 mph SE4.8 kmh SE 4.0 mph SE6.4 kmh SE - 1.4 mph 2.3 kmh
Wind Gusts 4.0 mph6.4 kmh 4.0 mph6.4 kmh - -
Humidity 77% 90% 67% 85%
Pressure 30.22 in1023.4 mb 30.22 in1023.4 mb 30.17 in1021.7 mb -
Hour Temp Dew Point Humidity Winds Wind Gusts Pressure Precip Precip Rate Daily Precip Total
07:15 AM 37.7°F3.2°C 31.2°F-0.4°C 77% 3.0 mph SE4.8 kmh SE 4.0 mph6.4 kmh 30.22 in1023.4 mb 0.00 in0.0 mm 0.00 in/hr0.0 mm/hr 0.00 in0.0 mm
07:00 AM 37.7°F3.2°C 30.8°F-0.7°C 76% 3.0 mph SE4.8 kmh SE 4.0 mph6.4 kmh 30.22 in1023.4 mb 0.00 in0.0 mm 0.00 in/hr0.0 mm/hr 0.00 in0.0 mm
06:45 AM 37.7°F3.2°C 30.5°F-0.8°C 75% 2.0 mph E3.2 kmh E 2.0 mph3.2 kmh 30.22 in1023.4 mb 0.00 in0.0 mm 0.00 in/hr0.0 mm/hr 0.00 in0.0 mm
06:30 AM 37.7°F3.2°C 32.4°F0.2°C 81% 2.0 mph NE3.2 kmh NE 3.0 mph4.8 kmh 30.22 in1023.4 mb 0.00 in0.0 mm 0.00 in/hr0.0 mm/hr 0.00 in0.0 mm
06:15 AM 31.6°F-0.2°C 26.5°F-3.1°C 81% Calm Calm 2.0 mph3.2 kmh 30.21 in1023.0 mb 0.00 in0.0 mm 0.00 in/hr0.0 mm/hr 0.00 in0.0 mm
06:00 AM 32.1°F0.1°C 26.0°F-3.3°C 78% 1.0 mph WSW1.6 kmh WSW 1.0 mph1.6 kmh 30.20 in1022.7 mb 0.00 in0.0 mm 0.00 in/hr0.0 mm/hr 0.00 in0.0 mm
05:45 AM 32.3°F0.2°C 25.9°F-3.4°C 77% 1.0 mph WSW1.6 kmh WSW 2.0 mph3.2 kmh 30.20 in1022.7 mb 0.00 in0.0 mm 0.00 in/hr0.0 mm/hr 0.00 in0.0 mm
05:30 AM 32.6°F0.3°C 26.5°F-3.1°C 78% Calm Calm 3.0 mph4.8 kmh 30.20 in1022.7 mb 0.00 in0.0 mm 0.00 in/hr0.0 mm/hr 0.00 in0.0 mm
05:15 AM 30.7°F-0.7°C 27.3°F-2.6°C 87% 2.0 mph WSW3.2 kmh WSW 4.0 mph6.4 kmh 30.20 in1022.7 mb 0.00 in0.0 mm 0.00 in/hr0.0 mm/hr 0.00 in0.0 mm
05:00 AM 29.2°F-1.6°C 26.4°F-3.1°C 89% Calm Calm 1.0 mph1.6 kmh 30.20 in1022.7 mb 0.00 in0.0 mm 0.00 in/hr0.0 mm/hr 0.00 in0.0 mm
04:45 AM 37.0°F2.8°C 27.1°F-2.7°C 67% 4.0 mph SE6.4 kmh SE 4.0 mph6.4 kmh 30.19 in1022.4 mb 0.00 in0.0 mm 0.00 in/hr0.0 mm/hr 0.00 in0.0 mm
04:30 AM 28.3°F-2.1°C 25.5°F-3.6°C 89% Calm Calm 1.0 mph1.6 kmh 30.19 in1022.4 mb 0.00 in0.0 mm 0.00 in/hr0.0 mm/hr 0.00 in0.0 mm
04:15 AM 28.3°F-2.1°C 25.5°F-3.6°C 89% Calm Calm 2.0 mph3.2 kmh 30.19 in1022.4 mb 0.00 in0.0 mm 0.00 in/hr0.0 mm/hr 0.00 in0.0 mm
04:00 AM 28.1°F-2.2°C 25.3°F-3.7°C 89% 1.0 mph ENE1.6 kmh ENE 1.0 mph1.6 kmh 30.18 in1022.0 mb 0.00 in0.0 mm 0.00 in/hr0.0 mm/hr 0.00 in0.0 mm
03:45 AM 28.1°F-2.2°C 25.3°F-3.7°C 89% 1.0 mph ENE1.6 kmh ENE 2.0 mph3.2 kmh 30.18 in1022.0 mb 0.00 in0.0 mm 0.00 in/hr0.0 mm/hr 0.00 in0.0 mm
03:30 AM 28.2°F-2.1°C 25.7°F-3.5°C 90% 2.0 mph ENE3.2 kmh ENE 2.0 mph3.2 kmh 30.18 in1022.0 mb 0.00 in0.0 mm 0.00 in/hr0.0 mm/hr 0.00 in0.0 mm
03:15 AM 28.6°F-1.9°C 25.8°F-3.4°C 89% 1.0 mph ENE1.6 kmh ENE 2.0 mph3.2 kmh 30.18 in1022.0 mb 0.00 in0.0 mm 0.00 in/hr0.0 mm/hr 0.00 in0.0 mm
03:00 AM 29.2°F-1.6°C 26.4°F-3.1°C 89% 1.0 mph ENE1.6 kmh ENE 2.0 mph3.2 kmh 30.17 in1021.7 mb 0.00 in0.0 mm 0.00 in/hr0.0 mm/hr 0.00 in0.0 mm
02:45 AM 29.2°F-1.6°C 26.6°F-3.0°C 90% 1.0 mph ENE1.6 kmh ENE 2.0 mph3.2 kmh 30.17 in1021.7 mb 0.00 in0.0 mm 0.00 in/hr0.0 mm/hr 0.00 in0.0 mm
02:30 AM 28.7°F-1.8°C 25.9°F-3.4°C 89% Calm Calm -- 30.18 in1022.0 mb 0.00 in0.0 mm 0.00 in/hr0.0 mm/hr 0.00 in0.0 mm
02:15 AM 29.0°F-1.7°C 26.2°F-3.2°C 89% 1.0 mph ENE1.6 kmh ENE 2.0 mph3.2 kmh 30.17 in1021.7 mb 0.00 in0.0 mm 0.00 in/hr0.0 mm/hr 0.00 in0.0 mm
02:00 AM 29.3°F-1.5°C 26.2°F-3.2°C 88% 1.0 mph ENE1.6 kmh ENE 2.0 mph3.2 kmh 30.18 in1022.0 mb 0.00 in0.0 mm 0.00 in/hr0.0 mm/hr 0.00 in0.0 mm
01:45 AM 29.4°F-1.4°C 26.0°F-3.3°C 87% 2.0 mph ENE3.2 kmh ENE 3.0 mph4.8 kmh 30.18 in1022.0 mb 0.00 in0.0 mm 0.00 in/hr0.0 mm/hr 0.00 in0.0 mm
01:30 AM 29.6°F-1.3°C 26.2°F-3.2°C 87% 2.0 mph ENE3.2 kmh ENE 3.0 mph4.8 kmh 30.18 in1022.0 mb 0.00 in0.0 mm 0.00 in/hr0.0 mm/hr 0.00 in0.0 mm
01:15 AM 29.8°F-1.2°C 26.7°F-2.9°C 88% 2.0 mph ENE3.2 kmh ENE 3.0 mph4.8 kmh 30.18 in1022.0 mb 0.00 in0.0 mm 0.00 in/hr0.0 mm/hr 0.00 in0.0 mm
01:00 AM 29.9°F-1.2°C 27.1°F-2.7°C 89% Calm Calm 2.0 mph3.2 kmh 30.18 in1022.0 mb 0.00 in0.0 mm 0.00 in/hr0.0 mm/hr 0.00 in0.0 mm
12:45 AM 30.1°F-1.1°C 27.3°F-2.6°C 89% 3.0 mph ENE4.8 kmh ENE 3.0 mph4.8 kmh 30.18 in1022.0 mb 0.00 in0.0 mm 0.00 in/hr0.0 mm/hr 0.00 in0.0 mm
12:30 AM 30.3°F-0.9°C 27.2°F-2.7°C 88% 2.0 mph ENE3.2 kmh ENE 3.0 mph4.8 kmh 30.17 in1021.7 mb 0.00 in0.0 mm 0.00 in/hr0.0 mm/hr 0.00 in0.0 mm
12:15 AM 30.5°F-0.8°C 27.1°F-2.7°C 87% 2.0 mph ENE3.2 kmh ENE 3.0 mph4.8 kmh 30.17 in1021.7 mb 0.00 in0.0 mm 0.00 in/hr0.0 mm/hr 0.00 in0.0 mm
12:00 AM 30.8°F-0.7°C 27.1°F-2.7°C 86% 1.0 mph ENE1.6 kmh ENE 2.0 mph3.2 kmh 30.18 in1022.0 mb 0.00 in0.0 mm 0.00 in/hr0.0 mm/hr 0.00 in0.0 mm